Time;durP1;ratioP1;P1;durP2;ratioP2;P2;SDS_P1;SDS_P2;PMS_P1;PMS_P2;Temp;Humidity;BMP_temperature;BMP_pressure;BME280_temperature;BME280_humidity;BME280_pressure;Samples;Min_cycle;Max_cycle;Signal;HPM_P1;HPM_P2
2022/09/06 00:01:14;;;;;;;4.80;3.35;;;;;;;;;;5012750;28;20532;-62
2022/09/06 00:03:40;;;;;;;8.93;4.13;;;;;;;;;;5044836;28;20750;-62
2022/09/06 00:06:16;;;;;;;7.03;4.10;;;;;;;;;;5050376;28;20095;-62
2022/09/06 00:08:43;;;;;;;5.60;4.05;;;;;;;;;;5049886;28;20079;-62
2022/09/06 00:11:10;;;;;;;7.10;3.63;;;;;;;;;;5049781;28;20045;-62
2022/09/06 00:13:36;;;;;;;4.38;3.97;;;;;;;;;;5050297;28;20063;-62
2022/09/06 00:16:09;;;;;;;4.78;3.95;;;;;;;;;;5049931;28;20049;-62
2022/09/06 00:18:35;;;;;;;5.65;4.22;;;;;;;;;;5049738;28;20043;-62
2022/09/06 00:21:02;;;;;;;8.88;4.30;;;;;;;;;;5050101;28;20052;-62
2022/09/06 00:23:28;;;;;;;5.65;3.67;;;;;;;;;;5049895;28;20080;-62
2022/09/06 00:26:01;;;;;;;4.70;3.67;;;;;;;;;;5041439;28;20072;-62
2022/09/06 00:28:27;;;;;;;4.50;3.85;;;;;;;;;;5030010;28;20045;-62
2022/09/06 00:30:53;;;;;;;5.97;4.05;;;;;;;;;;5030231;28;20116;-62
2022/09/06 00:33:19;;;;;;;5.43;4.00;;;;;;;;;;5029786;28;20495;-62
2022/09/06 00:35:46;;;;;;;7.88;4.70;;;;;;;;;;5030227;28;20488;-62
2022/09/06 00:38:12;;;;;;;5.93;4.78;;;;;;;;;;5029887;28;20041;-62
2022/09/06 00:40:38;;;;;;;6.47;4.10;;;;;;;;;;5030566;28;20530;-62
2022/09/06 00:43:04;;;;;;;5.20;4.70;;;;;;;;;;5033828;28;20572;-62
2022/09/06 00:45:31;;;;;;;7.30;4.00;;;;;;;;;;5033390;28;20083;-62
2022/09/06 00:47:58;;;;;;;7.03;4.05;;;;;;;;;;5033148;28;20777;-62
2022/09/06 00:50:25;;;;;;;6.93;3.85;;;;;;;;;;5033559;28;20413;-62
2022/09/06 00:52:52;;;;;;;5.40;4.15;;;;;;;;;;5033437;28;20056;-62
2022/09/06 00:55:19;;;;;;;5.35;4.35;;;;;;;;;;5033163;28;20057;-62
2022/09/06 00:57:49;;;;;;;4.75;4.15;;;;;;;;;;5033255;28;20057;-62
2022/09/06 01:00:16;;;;;;;11.25;4.50;;;;;;;;;;5033447;28;20060;-62
2022/09/06 01:02:42;;;;;;;5.78;4.07;;;;;;;;;;5039698;28;20107;-62
2022/09/06 01:05:09;;;;;;;4.85;4.45;;;;;;;;;;5035183;28;20041;-62
2022/09/06 01:07:38;;;;;;;6.72;4.55;;;;;;;;;;5052988;28;20060;-62
2022/09/06 01:10:21;;;;;;;4.72;4.22;;;;;;;;;;5052355;28;20057;-62
2022/09/06 01:12:47;;;;;;;8.98;4.70;;;;;;;;;;5053136;28;20133;-62
2022/09/06 01:15:28;;;;;;;9.40;4.53;;;;;;;;;;5053001;28;20510;-62
2022/09/06 01:18:11;;;;;;;5.65;4.63;;;;;;;;;;5052491;28;20072;-62
2022/09/06 01:20:40;;;;;;;8.65;4.60;;;;;;;;;;5052620;28;20052;-62
2022/09/06 01:23:24;;;;;;;7.30;4.72;;;;;;;;;;5052807;28;20112;-62
2022/09/06 01:25:50;;;;;;;6.70;4.30;;;;;;;;;;5045245;28;20033;-62
2022/09/06 01:28:32;;;;;;;5.88;4.50;;;;;;;;;;5014830;28;20083;-62
2022/09/06 01:31:17;;;;;;;8.07;4.90;;;;;;;;;;5032365;28;20041;-62
2022/09/06 01:33:50;;;;;;;5.47;4.60;;;;;;;;;;5032770;28;20045;-62
2022/09/06 01:36:18;;;;;;;4.97;4.28;;;;;;;;;;5032609;28;20048;-62
2022/09/06 01:38:44;;;;;;;5.05;4.45;;;;;;;;;;5032243;28;20037;-62
2022/09/06 01:41:10;;;;;;;10.20;4.28;;;;;;;;;;5032259;28;20361;-62
2022/09/06 01:43:38;;;;;;;8.93;4.35;;;;;;;;;;5032621;28;20149;-62
2022/09/06 01:46:16;;;;;;;6.28;4.75;;;;;;;;;;5032185;28;20380;-62
2022/09/06 01:49:01;;;;;;;6.65;4.97;;;;;;;;;;5032594;28;20037;-62
2022/09/06 01:51:53;;;;;;;6.43;5.13;;;;;;;;;;5032209;28;20056;-62
2022/09/06 01:54:26;;;;;;;7.47;4.97;;;;;;;;;;5031814;28;20516;-62
2022/09/06 01:57:11;;;;;;;5.70;4.63;;;;;;;;;;5032193;28;20536;-62
2022/09/06 01:59:43;;;;;;;7.00;4.93;;;;;;;;;;5032240;28;20048;-62
2022/09/06 02:02:24;;;;;;;7.35;4.68;;;;;;;;;;5033990;28;20162;-62
2022/09/06 02:04:53;;;;;;;6.57;4.57;;;;;;;;;;5034127;28;20087;-62
2022/09/06 02:07:24;;;;;;;7.25;5.00;;;;;;;;;;5051469;28;20051;-62
2022/09/06 02:09:57;;;;;;;9.70;5.22;;;;;;;;;;5051154;28;20049;-62
2022/09/06 02:12:24;;;;;;;7.53;4.95;;;;;;;;;;5051927;28;20051;-62
2022/09/06 02:15:02;;;;;;;7.85;4.95;;;;;;;;;;5051645;28;20044;-62
2022/09/06 02:17:32;;;;;;;5.65;5.00;;;;;;;;;;5051637;28;20080;-62
2022/09/06 02:20:01;;;;;;;5.20;4.68;;;;;;;;;;5051765;28;20037;-62
2022/09/06 02:22:29;;;;;;;5.55;5.05;;;;;;;;;;5051352;28;20124;-62
2022/09/06 02:24:56;;;;;;;7.53;5.18;;;;;;;;;;5051739;28;20091;-62
2022/09/06 02:27:22;;;;;;;5.38;4.78;;;;;;;;;;5031413;28;20073;-62
2022/09/06 02:29:48;;;;;;;8.57;4.93;;;;;;;;;;5031020;28;20048;-62
2022/09/06 02:32:25;;;;;;;7.07;4.80;;;;;;;;;;5031335;28;20121;-62
2022/09/06 02:34:52;;;;;;;9.23;5.32;;;;;;;;;;5031680;28;20096;-62
2022/09/06 02:37:18;;;;;;;6.32;5.72;;;;;;;;;;5031041;28;20124;-62
2022/09/06 02:39:45;;;;;;;10.32;5.65;;;;;;;;;;5031659;28;20091;-62
2022/09/06 02:42:12;;;;;;;9.95;5.70;;;;;;;;;;5031456;28;20033;-62
2022/09/06 02:44:38;;;;;;;7.82;5.13;;;;;;;;;;5031007;28;20033;-62
2022/09/06 02:47:04;;;;;;;7.30;4.55;;;;;;;;;;5030858;28;20099;-62
2022/09/06 02:49:31;;;;;;;7.85;5.60;;;;;;;;;;5031336;28;20076;-62
2022/09/06 02:51:57;;;;;;;8.52;5.25;;;;;;;;;;5030782;28;20099;-62
2022/09/06 02:54:23;;;;;;;6.25;5.18;;;;;;;;;;5031039;28;20476;-62
2022/09/06 02:56:49;;;;;;;7.90;5.95;;;;;;;;;;5030758;28;20041;-62
2022/09/06 02:59:15;;;;;;;8.20;5.55;;;;;;;;;;5030821;28;20550;-62
2022/09/06 03:01:41;;;;;;;8.52;5.93;;;;;;;;;;5030753;28;20040;-62
2022/09/06 03:04:08;;;;;;;8.63;5.40;;;;;;;;;;5049333;28;20388;-62
2022/09/06 03:06:34;;;;;;;9.82;5.38;;;;;;;;;;5050747;28;20119;-62
2022/09/06 03:09:00;;;;;;;6.55;5.32;;;;;;;;;;5050020;28;20061;-62
2022/09/06 03:11:26;;;;;;;12.20;5.65;;;;;;;;;;5050969;28;20574;-62
2022/09/06 03:13:52;;;;;;;5.80;5.20;;;;;;;;;;5051001;28;20129;-62
2022/09/06 03:16:19;;;;;;;8.20;5.25;;;;;;;;;;5050498;28;20372;-62
2022/09/06 03:18:45;;;;;;;6.45;5.40;;;;;;;;;;5050821;28;20040;-62
2022/09/06 03:21:12;;;;;;;9.95;5.55;;;;;;;;;;5050751;28;20039;-62
2022/09/06 03:23:38;;;;;;;8.02;6.00;;;;;;;;;;5050452;28;20059;-62
2022/09/06 03:26:04;;;;;;;10.27;5.97;;;;;;;;;;5041339;28;20117;-62
2022/09/06 03:28:30;;;;;;;6.85;5.43;;;;;;;;;;5030740;28;20037;-62
2022/09/06 03:30:57;;;;;;;6.10;5.15;;;;;;;;;;5030133;28;20043;-62
2022/09/06 03:33:23;;;;;;;10.82;6.30;;;;;;;;;;5030625;28;20393;-62
2022/09/06 03:35:53;;;;;;;7.20;5.55;;;;;;;;;;5030330;28;20091;-62
2022/09/06 03:38:19;;;;;;;9.05;6.07;;;;;;;;;;5030103;28;20065;-62
2022/09/06 03:40:46;;;;;;;9.90;5.45;;;;;;;;;;5030691;28;20033;-62
2022/09/06 03:43:13;;;;;;;9.88;6.03;;;;;;;;;;5030653;28;20069;-62
2022/09/06 03:45:39;;;;;;;6.95;5.57;;;;;;;;;;5030306;28;20111;-62
2022/09/06 03:48:05;;;;;;;6.65;5.95;;;;;;;;;;5030566;28;20041;-62
2022/09/06 03:50:31;;;;;;;5.97;5.47;;;;;;;;;;5030289;28;20041;-62
2022/09/06 03:52:57;;;;;;;7.45;5.55;;;;;;;;;;5030181;28;20052;-62
2022/09/06 03:55:23;;;;;;;7.03;6.30;;;;;;;;;;5030118;28;20052;-62
2022/09/06 03:57:49;;;;;;;9.05;6.10;;;;;;;;;;5030311;28;20057;-62
2022/09/06 04:00:15;;;;;;;7.68;6.15;;;;;;;;;;5012136;28;20149;-62
2022/09/06 04:02:41;;;;;;;8.18;6.10;;;;;;;;;;5037028;28;20430;-62
2022/09/06 04:05:07;;;;;;;7.93;5.97;;;;;;;;;;5050208;28;20040;-62
2022/09/06 04:07:36;;;;;;;6.05;5.38;;;;;;;;;;5049632;28;20627;-62
2022/09/06 04:10:02;;;;;;;8.27;6.30;;;;;;;;;;5049931;28;20061;-62
2022/09/06 04:12:28;;;;;;;8.68;6.75;;;;;;;;;;5050164;28;20048;-62
2022/09/06 04:14:54;;;;;;;7.97;5.82;;;;;;;;;;5032083;28;20045;-62
2022/09/06 04:17:21;;;;;;;7.95;6.70;;;;;;;;;;5053464;28;20083;-62
2022/09/06 04:19:47;;;;;;;7.22;6.53;;;;;;;;;;5053993;28;20047;-62
2022/09/06 04:22:13;;;;;;;6.60;6.00;;;;;;;;;;5053610;28;20656;-62
2022/09/06 04:24:39;;;;;;;10.10;6.78;;;;;;;;;;5053702;28;20095;-62
2022/09/06 04:27:06;;;;;;;7.47;6.65;;;;;;;;;;5035952;28;20092;-62
2022/09/06 04:29:32;;;;;;;7.38;6.68;;;;;;;;;;5033335;28;20069;-62
2022/09/06 04:31:58;;;;;;;8.63;7.05;;;;;;;;;;5033349;28;20081;-62
2022/09/06 04:34:24;;;;;;;11.07;7.47;;;;;;;;;;5033777;28;20046;-62
2022/09/06 04:36:50;;;;;;;11.52;7.63;;;;;;;;;;5015313;28;20052;-62
2022/09/06 04:39:16;;;;;;;9.90;8.20;;;;;;;;;;5033695;28;20507;-62
2022/09/06 04:41:42;;;;;;;10.25;8.35;;;;;;;;;;5033719;28;20041;-62
2022/09/06 04:44:08;;;;;;;13.13;8.15;;;;;;;;;;5032881;28;20049;-62
2022/09/06 04:46:34;;;;;;;10.20;7.80;;;;;;;;;;5033281;28;20080;-62
2022/09/06 04:49:00;;;;;;;12.82;9.07;;;;;;;;;;5033721;28;20427;-62
2022/09/06 04:51:27;;;;;;;10.40;8.68;;;;;;;;;;5032874;28;20037;-62
2022/09/06 04:53:53;;;;;;;11.38;8.55;;;;;;;;;;5033400;28;20041;-62
2022/09/06 04:56:21;;;;;;;8.85;7.95;;;;;;;;;;5033321;28;20399;-62
2022/09/06 04:58:48;;;;;;;9.82;8.57;;;;;;;;;;5032989;28;20125;-62
2022/09/06 05:01:14;;;;;;;9.07;8.18;;;;;;;;;;5015673;28;20049;-62
2022/09/06 05:03:40;;;;;;;13.00;8.70;;;;;;;;;;5047803;28;20385;-62
2022/09/06 05:06:10;;;;;;;9.57;8.57;;;;;;;;;;5052485;28;20155;-62
2022/09/06 05:08:37;;;;;;;10.70;8.93;;;;;;;;;;5052680;28;20101;-62
2022/09/06 05:11:04;;;;;;;14.82;8.85;;;;;;;;;;5053104;28;20132;-62
2022/09/06 05:13:30;;;;;;;10.73;9.63;;;;;;;;;;5052750;28;20045;-62
2022/09/06 05:15:59;;;;;;;10.20;8.93;;;;;;;;;;5052742;28;20036;-62
2022/09/06 05:18:25;;;;;;;12.73;9.07;;;;;;;;;;5053078;28;20090;-62
2022/09/06 05:20:55;;;;;;;9.63;8.55;;;;;;;;;;5034390;28;20044;-62
2022/09/06 05:23:21;;;;;;;11.25;8.90;;;;;;;;;;5052935;28;20171;-62
2022/09/06 05:25:47;;;;;;;11.13;8.43;;;;;;;;;;5045710;28;20864;-62
2022/09/06 05:28:14;;;;;;;14.25;9.88;;;;;;;;;;5031265;28;20033;-62
2022/09/06 05:30:40;;;;;;;12.30;9.32;;;;;;;;;;5032727;28;20497;-62
2022/09/06 05:33:06;;;;;;;14.00;9.48;;;;;;;;;;5032568;28;20037;-62
2022/09/06 05:35:32;;;;;;;12.57;9.60;;;;;;;;;;5032331;28;20138;-62
2022/09/06 05:37:59;;;;;;;11.45;10.25;;;;;;;;;;5032552;28;20045;-62
2022/09/06 05:40:25;;;;;;;12.38;9.88;;;;;;;;;;5032912;28;20389;-62
2022/09/06 05:42:51;;;;;;;10.85;9.75;;;;;;;;;;5032334;28;20046;-62
2022/09/06 05:45:17;;;;;;;12.10;9.60;;;;;;;;;;5014422;28;20038;-62
2022/09/06 05:47:43;;;;;;;11.55;10.20;;;;;;;;;;5032500;28;20041;-62
2022/09/06 05:50:09;;;;;;;13.90;10.48;;;;;;;;;;5032087;28;20421;-62
2022/09/06 05:52:35;;;;;;;10.98;8.93;;;;;;;;;;5014850;28;20046;-62
2022/09/06 05:55:02;;;;;;;10.68;9.45;;;;;;;;;;5032387;28;20052;-62
2022/09/06 05:57:28;;;;;;;10.93;9.90;;;;;;;;;;5031840;28;20080;-62
2022/09/06 05:59:54;;;;;;;10.27;8.93;;;;;;;;;;5032434;28;20041;-62
2022/09/06 06:02:23;;;;;;;11.40;9.48;;;;;;;;;;5035794;28;20033;-62
2022/09/06 06:04:50;;;;;;;13.68;10.70;;;;;;;;;;5051772;28;20056;-62
2022/09/06 06:07:17;;;;;;;11.18;9.75;;;;;;;;;;5051971;28;20114;-62
2022/09/06 06:09:43;;;;;;;16.20;10.40;;;;;;;;;;5051719;28;20545;-62
2022/09/06 06:12:09;;;;;;;11.55;10.45;;;;;;;;;;5051356;28;20080;-62
2022/09/06 06:14:35;;;;;;;11.38;10.27;;;;;;;;;;5032672;28;20055;-62
2022/09/06 06:17:01;;;;;;;11.85;9.68;;;;;;;;;;5050995;28;20081;-61
2022/09/06 06:19:27;;;;;;;12.65;10.23;;;;;;;;;;5045057;28;20037;-61
2022/09/06 06:21:55;;;;;;;11.60;9.82;;;;;;;;;;5031880;28;20158;-62
2022/09/06 06:24:21;;;;;;;11.95;10.73;;;;;;;;;;5037987;28;20071;-60
2022/09/06 06:26:47;;;;;;;12.90;10.77;;;;;;;;;;5035823;28;20078;-60
2022/09/06 06:29:13;;;;;;;11.77;10.50;;;;;;;;;;5051596;28;20047;-61
2022/09/06 06:31:39;;;;;;;11.88;10.65;;;;;;;;;;5043806;28;20629;-60
2022/09/06 06:34:06;;;;;;;11.65;10.38;;;;;;;;;;5030575;28;20048;-61
2022/09/06 06:36:33;;;;;;;12.57;10.43;;;;;;;;;;5031220;28;20053;-61
2022/09/06 06:39:00;;;;;;;17.50;10.77;;;;;;;;;;5030917;28;20116;-61
2022/09/06 06:41:27;;;;;;;13.75;10.55;;;;;;;;;;5030840;28;20053;-61
2022/09/06 06:44:01;;;;;;;12.15;10.93;;;;;;;;;;5031182;28;20033;-61
2022/09/06 06:46:28;;;;;;;12.50;11.27;;;;;;;;;;5031143;28;20144;-60
2022/09/06 06:48:54;;;;;;;11.98;10.77;;;;;;;;;;5030531;28;20396;-60
2022/09/06 06:51:22;;;;;;;14.20;10.52;;;;;;;;;;5031111;28;20488;-61
2022/09/06 06:53:48;;;;;;;13.32;10.70;;;;;;;;;;5030882;28;20048;-61
2022/09/06 06:56:19;;;;;;;13.02;10.80;;;;;;;;;;5030450;28;20045;-61
2022/09/06 06:58:46;;;;;;;12.50;11.30;;;;;;;;;;5031146;28;20074;-61
2022/09/06 07:01:12;;;;;;;12.15;10.50;;;;;;;;;;5045523;28;20040;-62
2022/09/06 07:03:39;;;;;;;17.83;12.05;;;;;;;;;;5040401;28;20045;-59
2022/09/06 07:06:05;;;;;;;13.15;11.80;;;;;;;;;;5047380;28;20043;-59
2022/09/06 07:08:32;;;;;;;17.52;11.65;;;;;;;;;;5047317;28;20056;-59
2022/09/06 07:10:58;;;;;;;12.25;10.95;;;;;;;;;;5041387;28;20083;-59
2022/09/06 07:13:24;;;;;;;14.27;11.13;;;;;;;;;;5030007;28;20369;-61
2022/09/06 07:15:50;;;;;;;12.68;11.45;;;;;;;;;;5048384;28;20036;-60
2022/09/06 07:18:16;;;;;;;14.85;11.80;;;;;;;;;;5047663;28;20127;-62
2022/09/06 07:20:42;;;;;;;13.32;11.90;;;;;;;;;;5049304;28;20048;-60
2022/09/06 07:23:09;;;;;;;14.40;11.25;;;;;;;;;;5035897;28;20037;-62
2022/09/06 07:25:35;;;;;;;13.75;11.25;;;;;;;;;;5036241;28;20037;-62
2022/09/06 07:28:05;;;;;;;13.20;11.40;;;;;;;;;;5029579;28;20045;-62
2022/09/06 07:30:32;;;;;;;14.05;11.27;;;;;;;;;;5049334;28;20070;-60
2022/09/06 07:32:58;;;;;;;13.75;12.00;;;;;;;;;;5049790;28;20118;-60
2022/09/06 07:35:25;;;;;;;13.85;11.75;;;;;;;;;;5030691;28;20045;-61
2022/09/06 07:37:58;;;;;;;14.18;11.50;;;;;;;;;;5037521;28;20350;-60
2022/09/06 07:40:25;;;;;;;13.68;11.38;;;;;;;;;;5030158;28;20038;-60
2022/09/06 07:42:51;;;;;;;12.32;11.02;;;;;;;;;;5029861;28;20045;-61
2022/09/06 07:45:18;;;;;;;11.95;10.65;;;;;;;;;;5029886;28;20038;-60
2022/09/06 07:47:44;;;;;;;12.93;11.60;;;;;;;;;;5029864;28;20041;-59
2022/09/06 07:50:10;;;;;;;20.05;11.95;;;;;;;;;;5029975;28;20053;-61
2022/09/06 07:52:36;;;;;;;13.30;11.90;;;;;;;;;;5036914;28;20076;-60
2022/09/06 07:55:03;;;;;;;13.82;11.52;;;;;;;;;;5053608;28;20040;-60
2022/09/06 07:57:29;;;;;;;13.18;10.70;;;;;;;;;;5033322;28;20076;-61
2022/09/06 07:59:55;;;;;;;11.77;10.57;;;;;;;;;;5033601;28;20127;-61
2022/09/06 08:02:21;;;;;;;14.15;10.82;;;;;;;;;;5037776;28;20040;-59
2022/09/06 08:04:47;;;;;;;13.73;11.32;;;;;;;;;;5051749;28;20842;-59
2022/09/06 08:07:13;;;;;;;13.50;11.15;;;;;;;;;;5050870;28;20053;-60
2022/09/06 08:09:40;;;;;;;13.20;10.88;;;;;;;;;;5033139;28;20089;-60
2022/09/06 08:12:06;;;;;;;12.55;11.27;;;;;;;;;;5033324;28;20037;-61
2022/09/06 08:14:32;;;;;;;14.40;10.88;;;;;;;;;;5033740;28;20041;-58
2022/09/06 08:16:58;;;;;;;15.60;11.00;;;;;;;;;;5038246;28;20056;-60
2022/09/06 08:19:24;;;;;;;12.35;10.57;;;;;;;;;;5050566;28;20102;-61
2022/09/06 08:21:54;;;;;;;11.93;10.60;;;;;;;;;;5040441;28;20483;-61
2022/09/06 08:24:20;;;;;;;12.68;10.63;;;;;;;;;;5044616;28;20102;-59
2022/09/06 08:26:46;;;;;;;13.52;10.48;;;;;;;;;;5042256;28;20040;-60
2022/09/06 08:29:13;;;;;;;14.88;11.30;;;;;;;;;;5043309;28;20033;-61
2022/09/06 08:31:40;;;;;;;11.75;10.55;;;;;;;;;;5036665;28;20037;-59
2022/09/06 08:34:06;;;;;;;10.93;9.82;;;;;;;;;;5052377;28;20475;-61
2022/09/06 08:36:33;;;;;;;10.88;9.77;;;;;;;;;;5048370;28;20648;-59
2022/09/06 08:39:00;;;;;;;11.80;10.70;;;;;;;;;;5052783;28;20110;-57
2022/09/06 08:41:32;;;;;;;11.55;9.38;;;;;;;;;;5044359;28;20043;-59
2022/09/06 08:44:09;;;;;;;10.77;9.48;;;;;;;;;;5032509;28;20045;-59
2022/09/06 08:46:41;;;;;;;12.15;9.52;;;;;;;;;;5032893;28;20041;-59
2022/09/06 08:49:08;;;;;;;12.23;10.88;;;;;;;;;;5037782;28;20174;-60
2022/09/06 08:51:37;;;;;;;12.35;10.15;;;;;;;;;;5052898;28;20065;-60
2022/09/06 08:54:08;;;;;;;10.98;9.77;;;;;;;;;;5039562;28;20476;-59
2022/09/06 08:56:38;;;;;;;11.40;9.30;;;;;;;;;;5032712;28;20084;-60
2022/09/06 08:59:05;;;;;;;9.98;9.02;;;;;;;;;;5052150;28;20073;-62
2022/09/06 09:01:52;;;;;;;9.68;8.68;;;;;;;;;;5044030;28;20041;-59
2022/09/06 09:04:19;;;;;;;8.80;7.93;;;;;;;;;;5008677;28;20045;-59
2022/09/06 09:06:48;;;;;;;10.32;7.68;;;;;;;;;;5033469;28;20049;-59
2022/09/06 09:09:15;;;;;;;9.48;8.05;;;;;;;;;;5031651;28;20058;-60
2022/09/06 09:11:43;;;;;;;8.45;7.65;;;;;;;;;;5031875;28;20089;-59
2022/09/06 09:14:16;;;;;;;10.93;7.78;;;;;;;;;;5031640;28;20052;-58
2022/09/06 09:16:43;;;;;;;8.30;7.50;;;;;;;;;;5033325;28;20140;-59
2022/09/06 09:19:09;;;;;;;8.13;7.30;;;;;;;;;;5052178;28;20032;-58
2022/09/06 09:21:39;;;;;;;8.52;7.70;;;;;;;;;;5041532;28;20048;-60
2022/09/06 09:24:06;;;;;;;8.27;7.47;;;;;;;;;;5051678;28;20041;-59
2022/09/06 09:26:43;;;;;;;8.57;7.55;;;;;;;;;;5038241;28;20041;-59
2022/09/06 09:29:11;;;;;;;8.48;7.60;;;;;;;;;;5031900;28;20191;-59
2022/09/06 09:31:38;;;;;;;9.75;7.63;;;;;;;;;;5031759;28;20045;-60
2022/09/06 09:34:05;;;;;;;8.07;7.20;;;;;;;;;;5031969;28;20153;-60
2022/09/06 09:36:31;;;;;;;10.15;7.00;;;;;;;;;;5041018;28;20056;-60
2022/09/06 09:38:58;;;;;;;7.18;6.30;;;;;;;;;;5052107;28;20036;-60
2022/09/06 09:41:29;;;;;;;11.25;5.68;;;;;;;;;;5045395;28;20046;-59
2022/09/06 09:43:57;;;;;;;5.97;4.80;;;;;;;;;;5026244;28;20122;-60
2022/09/06 09:46:23;;;;;;;6.60;5.10;;;;;;;;;;5046008;28;20492;-60
2022/09/06 09:49:03;;;;;;;5.68;5.13;;;;;;;;;;5043092;28;20068;-60
2022/09/06 09:51:30;;;;;;;7.13;5.60;;;;;;;;;;5038226;28;20059;-59
2022/09/06 09:53:57;;;;;;;8.00;4.93;;;;;;;;;;5040510;28;20171;-59
2022/09/06 09:56:35;;;;;;;6.10;4.78;;;;;;;;;;5031410;28;20053;-60
2022/09/06 09:59:02;;;;;;;5.85;4.88;;;;;;;;;;5031662;28;20127;-59
2022/09/06 10:01:32;;;;;;;7.18;4.75;;;;;;;;;;5037228;28;20044;-59
2022/09/06 10:04:09;;;;;;;7.10;5.57;;;;;;;;;;5038194;28;20041;-60
2022/09/06 10:06:35;;;;;;;7.38;5.70;;;;;;;;;;5036301;28;20184;-58
2022/09/06 10:09:15;;;;;;;9.55;6.40;;;;;;;;;;5040022;28;20057;-60
2022/09/06 10:12:07;;;;;;;8.95;6.57;;;;;;;;;;5050027;28;20053;-59
2022/09/06 10:14:44;;;;;;;9.40;6.28;;;;;;;;;;5026102;28;20184;-58
2022/09/06 10:17:29;;;;;;;7.55;5.57;;;;;;;;;;5030895;28;20443;-60
2022/09/06 10:19:56;;;;;;;7.47;6.35;;;;;;;;;;5031333;28;20041;-60
2022/09/06 10:22:25;;;;;;;8.57;6.45;;;;;;;;;;5036425;28;20419;-60
2022/09/06 10:24:54;;;;;;;7.55;6.70;;;;;;;;;;5030562;28;20041;-61
2022/09/06 10:27:25;;;;;;;8.07;5.80;;;;;;;;;;5050648;28;20071;-60
2022/09/06 10:29:55;;;;;;;8.80;6.65;;;;;;;;;;5040612;28;20041;-60
2022/09/06 10:32:41;;;;;;;7.03;6.20;;;;;;;;;;5044483;28;20037;-60
2022/09/06 10:35:22;;;;;;;8.40;6.78;;;;;;;;;;5030887;28;20132;-59
2022/09/06 10:37:48;;;;;;;7.28;5.97;;;;;;;;;;5031012;28;20541;-59
2022/09/06 10:40:33;;;;;;;8.23;5.85;;;;;;;;;;5030737;28;20388;-59
2022/09/06 10:43:00;;;;;;;9.73;8.63;;;;;;;;;;5031051;28;20091;-59
2022/09/06 10:45:37;;;;;;;10.63;7.60;;;;;;;;;;5030936;28;20087;-59
2022/09/06 10:48:09;;;;;;;13.18;8.32;;;;;;;;;;5031259;28;20087;-59
2022/09/06 10:50:42;;;;;;;10.02;8.88;;;;;;;;;;5031047;28;20053;-59
2022/09/06 10:53:37;;;;;;;10.43;8.00;;;;;;;;;;5030498;28;20041;-57
2022/09/06 10:56:06;;;;;;;12.05;8.23;;;;;;;;;;5016413;28;20076;-56
2022/09/06 10:58:39;;;;;;;10.10;7.78;;;;;;;;;;5050677;28;20045;-57
2022/09/06 11:01:07;;;;;;;10.00;7.22;;;;;;;;;;5038990;28;20043;-58
2022/09/06 11:03:39;;;;;;;11.32;6.85;;;;;;;;;;5044354;28;20048;-56
2022/09/06 11:06:07;;;;;;;10.88;6.60;;;;;;;;;;5031416;28;20043;-59
2022/09/06 11:08:43;;;;;;;9.82;7.28;;;;;;;;;;5012109;28;20099;-56
2022/09/06 11:11:13;;;;;;;7.30;6.22;;;;;;;;;;5031022;28;20060;-57
2022/09/06 11:13:39;;;;;;;8.90;6.82;;;;;;;;;;5030434;28;20041;-59
2022/09/06 11:16:08;;;;;;;12.35;7.82;;;;;;;;;;5030001;28;20076;-59
2022/09/06 11:18:39;;;;;;;7.03;6.15;;;;;;;;;;5012881;28;20044;-59
2022/09/06 11:21:29;;;;;;;7.15;6.03;;;;;;;;;;5030389;28;20136;-58
2022/09/06 11:23:58;;;;;;;12.82;7.85;;;;;;;;;;5029977;28;20037;-59
2022/09/06 11:26:42;;;;;;;7.10;6.30;;;;;;;;;;5042328;28;20037;-58
2022/09/06 11:29:28;;;;;;;8.25;6.60;;;;;;;;;;5050343;28;20045;-57
2022/09/06 11:32:00;;;;;;;7.22;6.13;;;;;;;;;;5048279;28;20094;-57
2022/09/06 11:34:31;;;;;;;8.15;6.57;;;;;;;;;;5030150;28;20045;-57
2022/09/06 11:36:58;;;;;;;8.73;6.63;;;;;;;;;;5029980;28;20136;-58
2022/09/06 11:39:42;;;;;;;6.60;5.57;;;;;;;;;;5030054;28;20043;-57
2022/09/06 11:42:09;;;;;;;7.18;5.75;;;;;;;;;;5030708;28;20044;-57
2022/09/06 11:44:54;;;;;;;8.13;6.82;;;;;;;;;;5034816;28;20569;-57
2022/09/06 11:47:38;;;;;;;7.72;5.85;;;;;;;;;;5012341;28;20451;-58
2022/09/06 11:50:20;;;;;;;7.35;5.20;;;;;;;;;;5030434;28;20052;-57
2022/09/06 11:52:49;;;;;;;7.40;5.00;;;;;;;;;;5029985;28;20041;-58
2022/09/06 11:55:17;;;;;;;8.48;5.40;;;;;;;;;;5030457;28;20346;-58
2022/09/06 11:57:44;;;;;;;5.03;4.28;;;;;;;;;;5044883;28;20175;-58
2022/09/06 12:00:17;;;;;;;6.45;4.47;;;;;;;;;;5049682;28;20045;-56
2022/09/06 12:02:44;;;;;;;6.50;4.75;;;;;;;;;;5043264;28;20065;-57
2022/09/06 12:05:10;;;;;;;4.70;4.00;;;;;;;;;;5029924;28;20099;-57
2022/09/06 12:07:37;;;;;;;7.45;5.00;;;;;;;;;;5029613;28;20120;-57
2022/09/06 12:10:27;;;;;;;5.45;4.95;;;;;;;;;;5012223;28;20123;-55
2022/09/06 12:12:53;;;;;;;7.40;4.65;;;;;;;;;;4984097;28;20049;-58
2022/09/06 12:15:30;;;;;;;6.90;4.70;;;;;;;;;;5029936;28;20437;-57
2022/09/06 12:17:57;;;;;;;7.00;4.45;;;;;;;;;;5045065;28;20043;-57
2022/09/06 12:20:42;;;;;;;10.68;6.15;;;;;;;;;;5046457;28;20045;-59
2022/09/06 12:23:08;;;;;;;6.05;4.57;;;;;;;;;;5029654;28;20048;-59
2022/09/06 12:25:34;;;;;;;6.10;4.30;;;;;;;;;;5034747;28;20107;-58
2022/09/06 12:28:19;;;;;;;6.35;4.95;;;;;;;;;;5050087;28;20159;-60
2022/09/06 12:30:46;;;;;;;5.80;4.30;;;;;;;;;;5042369;28;20036;-60
2022/09/06 12:33:31;;;;;;;6.65;3.63;;;;;;;;;;5040237;28;20056;-58
2022/09/06 12:36:13;;;;;;;8.43;5.07;;;;;;;;;;5030244;28;20047;-60
2022/09/06 12:38:40;;;;;;;6.15;4.13;;;;;;;;;;5033285;28;20046;-59
2022/09/06 12:41:07;;;;;;;5.13;3.70;;;;;;;;;;5015641;28;20488;-59
2022/09/06 12:43:35;;;;;;;6.57;3.50;;;;;;;;;;5033630;28;20107;-58
2022/09/06 12:46:01;;;;;;;4.00;3.33;;;;;;;;;;5033190;28;20092;-59
2022/09/06 12:48:27;;;;;;;5.13;3.72;;;;;;;;;;5036384;28;20491;-60
2022/09/06 12:51:04;;;;;;;5.20;3.55;;;;;;;;;;5053170;28;20041;-58
2022/09/06 12:53:30;;;;;;;6.57;3.65;;;;;;;;;;5052834;28;20090;-58
2022/09/06 12:56:04;;;;;;;3.25;2.95;;;;;;;;;;5053425;28;20572;-58
2022/09/06 12:58:30;;;;;;;4.25;2.92;;;;;;;;;;5033265;28;20075;-58
2022/09/06 13:01:01;;;;;;;3.33;2.90;;;;;;;;;;5032977;28;20041;-58
2022/09/06 13:03:42;;;;;;;3.47;2.30;;;;;;;;;;5045684;28;20056;-58
2022/09/06 13:06:11;;;;;;;4.82;2.75;;;;;;;;;;5034943;28;20045;-57
2022/09/06 13:08:41;;;;;;;3.85;3.20;;;;;;;;;;5048756;28;20103;-59
2022/09/06 13:11:12;;;;;;;4.28;2.92;;;;;;;;;;5037517;28;20061;-59
2022/09/06 13:13:44;;;;;;;4.80;2.75;;;;;;;;;;5032406;28;20068;-58
2022/09/06 13:16:10;;;;;;;3.22;2.90;;;;;;;;;;5033129;28;20095;-58
2022/09/06 13:18:38;;;;;;;2.97;2.67;;;;;;;;;;5033084;28;20052;-58
2022/09/06 13:21:06;;;;;;;6.95;2.78;;;;;;;;;;5039709;28;20062;-58
2022/09/06 13:23:42;;;;;;;5.07;2.70;;;;;;;;;;5052968;28;20094;-58
2022/09/06 13:26:08;;;;;;;3.25;2.38;;;;;;;;;;5042288;28;20053;-58
2022/09/06 13:28:35;;;;;;;2.40;2.00;;;;;;;;;;5032316;28;20045;-58
2022/09/06 13:31:02;;;;;;;2.50;2.30;;;;;;;;;;5032951;28;20142;-57
2022/09/06 13:33:28;;;;;;;2.08;1.83;;;;;;;;;;5042552;28;20048;-57
2022/09/06 13:36:07;;;;;;;3.00;1.80;;;;;;;;;;5052346;28;20045;-59
2022/09/06 13:38:38;;;;;;;2.13;1.60;;;;;;;;;;5052269;28;20080;-60
2022/09/06 13:41:05;;;;;;;5.32;1.80;;;;;;;;;;5052462;28;20535;-60
2022/09/06 13:43:39;;;;;;;2.92;1.73;;;;;;;;;;5052029;28;20376;-59
2022/09/06 13:46:06;;;;;;;3.70;1.58;;;;;;;;;;5037555;28;20033;-60
2022/09/06 13:48:32;;;;;;;4.70;1.80;;;;;;;;;;5031191;28;20048;-60
2022/09/06 13:50:59;;;;;;;2.90;1.60;;;;;;;;;;5031819;28;20093;-61
2022/09/06 13:53:25;;;;;;;1.88;1.63;;;;;;;;;;5032239;28;20041;-60
2022/09/06 13:55:51;;;;;;;3.15;1.88;;;;;;;;;;5032379;28;20044;-60
2022/09/06 13:58:17;;;;;;;3.20;1.95;;;;;;;;;;5031759;28;20049;-60
2022/09/06 14:00:45;;;;;;;2.80;2.10;;;;;;;;;;5032225;28;20372;-62
2022/09/06 14:03:13;;;;;;;2.67;1.67;;;;;;;;;;5042456;28;20531;-59
2022/09/06 14:05:39;;;;;;;3.92;2.03;;;;;;;;;;5051375;28;20071;-62
2022/09/06 14:08:05;;;;;;;4.00;2.15;;;;;;;;;;5044808;28;20451;-59
2022/09/06 14:10:32;;;;;;;3.92;1.80;;;;;;;;;;5013735;28;20056;-60
2022/09/06 14:12:58;;;;;;;3.53;1.90;;;;;;;;;;5031677;28;20044;-60
2022/09/06 14:15:24;;;;;;;5.47;2.15;;;;;;;;;;5032040;28;20069;-60
2022/09/06 14:17:51;;;;;;;3.20;2.13;;;;;;;;;;5031393;28;20086;-54
2022/09/06 14:20:17;;;;;;;2.70;1.95;;;;;;;;;;5031617;28;20107;-57
2022/09/06 14:22:43;;;;;;;7.13;2.40;;;;;;;;;;5032454;28;20095;-59
2022/09/06 14:25:09;;;;;;;4.90;2.20;;;;;;;;;;5051466;28;20104;-60
2022/09/06 14:27:35;;;;;;;2.10;1.90;;;;;;;;;;5051086;28;20063;-60
2022/09/06 14:30:02;;;;;;;3.65;1.83;;;;;;;;;;5051668;28;20044;-59
2022/09/06 14:32:28;;;;;;;4.28;2.22;;;;;;;;;;5051529;28;20052;-60
2022/09/06 14:34:54;;;;;;;3.22;2.70;;;;;;;;;;5051457;28;20044;-60
2022/09/06 14:37:20;;;;;;;3.38;2.00;;;;;;;;;;5050473;28;20083;-59
2022/09/06 14:39:47;;;;;;;5.93;2.20;;;;;;;;;;5051013;28;20098;-60
2022/09/06 14:42:14;;;;;;;3.85;2.05;;;;;;;;;;5051257;28;20048;-60
2022/09/06 14:44:40;;;;;;;5.60;2.03;;;;;;;;;;5050736;28;20041;-60
2022/09/06 14:47:06;;;;;;;3.50;1.88;;;;;;;;;;5050878;28;20098;-59